Studley, Virginia
Current Conditions -  °F | °C
As of 12:54 AM on Sunday 26 Oct 2014 (Local Time) from KOFP Reporting Station
Clear Clear  
Wind Chill: 57°   Ceiling: Unl
Heat Index: 57°   Visibility: 10mi
Dew Point: 45°   Wind: 6mph
Humidity: 64%   Direction: 250°WSW
Pressure: 29.77"   Gusts: NA
Location:  37.68°N, 77.29°W
Report Text: KOFP 260454Z AUTO 25005KT 10SM CLR 14/07 A2977 RMK AO2 SLP079 T01390072 402170028
Loading
Personal Weather Stations






























Interactive Weather Map
Tropical Storm Tracking
New forecast layout! Learn more

10-Day Weather Forecast

Advertisements
Track Severe Weather on mobile